createdAt,value
2022-12-15T00:00:16.463Z,-1.70
2022-12-15T00:03:02.119Z,-1.70
2022-12-15T00:05:49.782Z,-1.70
2022-12-15T00:08:36.916Z,-1.70
2022-12-15T00:11:22.497Z,-1.80
2022-12-15T00:14:08.030Z,-1.80
2022-12-15T00:16:53.657Z,-1.80
2022-12-15T00:19:39.184Z,-1.80
2022-12-15T00:22:24.612Z,-1.90
2022-12-15T00:25:11.338Z,-1.90
2022-12-15T00:27:56.823Z,-1.90
2022-12-15T00:30:42.276Z,-1.90
2022-12-15T00:33:29.927Z,-1.90
2022-12-15T00:36:17.978Z,-1.90
2022-12-15T00:38:46.187Z,-1.90
2022-12-15T00:41:17.112Z,-2.00
2022-12-15T00:43:45.102Z,-2.00
2022-12-15T00:46:30.493Z,-2.00
2022-12-15T00:48:59.110Z,-2.00
2022-12-15T00:51:44.585Z,-2.00
2022-12-15T00:54:29.674Z,-2.00
2022-12-15T00:57:16.185Z,-2.00
2022-12-15T01:00:01.780Z,-2.10
2022-12-15T01:02:47.344Z,-2.00
2022-12-15T01:05:33.081Z,-2.00
2022-12-15T01:08:19.108Z,-2.00
2022-12-15T01:11:04.484Z,-1.80
2022-12-15T01:13:51.396Z,-1.80
2022-12-15T01:16:36.817Z,-1.80
2022-12-15T01:19:22.236Z,-1.90
2022-12-15T01:21:50.989Z,-1.90
2022-12-15T01:24:18.944Z,-1.90
2022-12-15T01:26:46.832Z,-1.90
2022-12-15T01:29:16.058Z,-1.90
2022-12-15T01:31:44.118Z,-1.90
2022-12-15T01:34:12.192Z,-1.90
2022-12-15T01:36:40.143Z,-2.00
2022-12-15T01:39:08.155Z,-2.00
2022-12-15T01:41:35.123Z,-2.00
2022-12-15T01:44:19.004Z,-2.10
2022-12-15T01:46:48.249Z,-2.10
2022-12-15T01:49:21.753Z,-2.10
2022-12-15T01:51:52.402Z,-2.10
2022-12-15T01:54:23.606Z,-2.10
2022-12-15T01:56:56.044Z,-2.10
2022-12-15T01:59:31.936Z,-2.20
2022-12-15T02:01:59.980Z,-2.20
2022-12-15T02:04:28.113Z,-2.20
2022-12-15T02:06:56.012Z,-2.20
2022-12-15T02:09:25.616Z,-2.30
2022-12-15T02:12:02.054Z,-2.30
2022-12-15T02:14:44.635Z,-2.30
2022-12-15T02:17:23.319Z,-2.30
2022-12-15T02:20:37.608Z,-2.30
2022-12-15T02:23:32.916Z,-2.30
2022-12-15T02:26:33.740Z,-2.30
2022-12-15T02:29:13.256Z,-2.30
2022-12-15T02:31:52.041Z,-2.30
2022-12-15T02:34:27.468Z,-2.30
2022-12-15T02:37:00.371Z,-2.30
2022-12-15T02:39:28.276Z,-2.30
2022-12-15T02:41:56.286Z,-2.20
2022-12-15T02:44:29.075Z,-2.20
2022-12-15T02:47:15.136Z,-2.20
2022-12-15T02:49:55.048Z,-2.20
2022-12-15T02:52:34.521Z,-2.20
2022-12-15T02:55:17.003Z,-2.20
2022-12-15T02:57:55.043Z,-2.20
2022-12-15T03:00:23.906Z,-2.20
2022-12-15T03:02:55.460Z,-2.20
2022-12-15T03:05:25.534Z,-2.20
2022-12-15T03:07:55.060Z,-2.20
2022-12-15T03:10:25.451Z,-2.20
2022-12-15T03:12:54.471Z,-2.20
2022-12-15T03:15:22.601Z,-2.20
2022-12-15T03:17:50.607Z,-2.20
2022-12-15T03:20:19.985Z,-2.20
2022-12-15T03:22:47.897Z,-2.30
2022-12-15T03:25:15.960Z,-2.30
2022-12-15T03:27:44.351Z,-2.30
2022-12-15T03:30:13.637Z,-2.30
2022-12-15T03:32:41.590Z,-2.30
2022-12-15T03:35:09.901Z,-2.30
2022-12-15T03:37:39.269Z,-2.40
2022-12-15T03:40:08.593Z,-2.30
2022-12-15T03:42:51.583Z,-2.40
2022-12-15T03:45:21.197Z,-2.40
2022-12-15T03:47:50.144Z,-2.40
2022-12-15T03:50:20.689Z,-2.40
2022-12-15T03:52:53.324Z,-2.40
2022-12-15T03:55:21.924Z,-2.40
2022-12-15T03:57:50.330Z,-2.40
2022-12-15T04:00:20.045Z,-2.40
2022-12-15T04:02:50.138Z,-2.40
2022-12-15T04:05:20.699Z,-2.40
2022-12-15T04:07:48.958Z,-2.40
2022-12-15T04:10:18.566Z,-2.40
2022-12-15T04:12:46.478Z,-2.50
2022-12-15T04:15:14.716Z,-2.40
2022-12-15T04:17:43.356Z,-2.40
2022-12-15T04:20:12.100Z,-2.50
2022-12-15T04:22:40.863Z,-2.40
2022-12-15T04:25:29.211Z,-2.40
2022-12-15T04:28:15.659Z,-2.40
2022-12-15T04:31:04.953Z,-2.40
2022-12-15T04:33:51.147Z,-2.40
2022-12-15T04:36:36.616Z,-2.50
2022-12-15T04:39:23.495Z,-2.40
2022-12-15T04:42:09.485Z,-2.40
2022-12-15T04:44:56.527Z,-2.40
2022-12-15T04:47:41.972Z,-2.40
2022-12-15T04:50:27.398Z,-2.50
2022-12-15T04:53:12.920Z,-2.50
2022-12-15T04:55:58.550Z,-2.50
2022-12-15T04:58:43.968Z,-2.40
2022-12-15T05:01:30.675Z,-2.40
2022-12-15T05:04:16.169Z,-2.50
2022-12-15T05:07:01.608Z,-2.50
2022-12-15T05:09:47.150Z,-2.50
2022-12-15T05:12:32.442Z,-2.50
2022-12-15T05:15:17.988Z,-2.50
2022-12-15T05:18:04.648Z,-2.60
2022-12-15T05:20:50.301Z,-2.50
2022-12-15T05:23:35.783Z,-2.60
2022-12-15T05:26:21.408Z,-2.50
2022-12-15T05:29:06.908Z,-2.60
2022-12-15T05:31:52.250Z,-2.60
2022-12-15T05:34:23.338Z,-2.50
2022-12-15T05:36:52.236Z,-2.50
2022-12-15T05:39:20.883Z,-2.60
2022-12-15T05:41:49.116Z,-2.60
2022-12-15T05:44:17.392Z,-2.50
2022-12-15T05:46:45.387Z,-2.60
2022-12-15T05:49:15.980Z,-2.60
2022-12-15T05:51:47.068Z,-2.60
2022-12-15T05:54:17.199Z,-2.50
2022-12-15T05:56:45.538Z,-2.50
2022-12-15T05:59:13.953Z,-2.50
2022-12-15T06:01:41.957Z,-2.40
2022-12-15T06:04:11.903Z,-2.40
2022-12-15T06:06:40.281Z,-2.40
2022-12-15T06:09:10.312Z,-2.40
2022-12-15T06:11:38.372Z,-2.40
2022-12-15T06:14:06.438Z,-2.40
2022-12-15T06:16:38.265Z,-2.40
2022-12-15T06:19:09.197Z,-2.40
2022-12-15T06:21:37.976Z,-2.40
2022-12-15T06:24:07.026Z,-2.40
2022-12-15T06:26:38.041Z,-2.40
2022-12-15T06:29:08.778Z,-2.50
2022-12-15T06:31:37.607Z,-2.50
2022-12-15T06:34:07.451Z,-2.50
2022-12-15T06:36:36.035Z,-2.40
2022-12-15T06:39:06.289Z,-2.40
2022-12-15T06:41:35.782Z,-2.40
2022-12-15T06:44:03.812Z,-2.50
2022-12-15T06:46:33.231Z,-2.50
2022-12-15T06:49:01.850Z,-2.40
2022-12-15T06:51:30.239Z,-2.50
2022-12-15T06:53:58.291Z,-2.50
2022-12-15T06:56:33.192Z,-2.40
2022-12-15T06:59:04.290Z,-2.40
2022-12-15T07:01:33.171Z,-1.40
2022-12-15T07:04:03.069Z,-2.40
2022-12-15T07:06:36.581Z,-2.40
2022-12-15T07:09:07.170Z,-2.40
2022-12-15T07:11:35.385Z,-2.50
2022-12-15T07:14:06.014Z,-2.40
2022-12-15T07:16:34.244Z,-2.40
2022-12-15T07:19:02.418Z,-2.40
2022-12-15T07:21:30.826Z,-2.50
2022-12-15T07:23:59.926Z,-2.50
2022-12-15T07:26:28.623Z,-2.50
2022-12-15T07:28:56.804Z,-3.70
2022-12-15T07:31:26.340Z,-2.50
2022-12-15T07:33:54.740Z,-2.50
2022-12-15T07:36:23.181Z,-2.50
2022-12-15T07:38:51.982Z,-2.40
2022-12-15T07:41:21.262Z,-2.50
2022-12-15T07:43:49.635Z,-2.50
2022-12-15T07:46:17.933Z,-1.80
2022-12-15T07:48:50.981Z,-2.50
2022-12-15T07:51:21.204Z,-2.50
2022-12-15T07:53:50.891Z,-2.40
2022-12-15T07:56:20.386Z,-2.40
2022-12-15T07:58:48.359Z,-2.40
2022-12-15T08:01:17.174Z,-2.40
2022-12-15T08:03:46.009Z,-2.30
2022-12-15T08:06:16.916Z,-2.30
2022-12-15T08:08:50.295Z,-2.20
2022-12-15T08:11:20.466Z,-2.20
2022-12-15T08:14:05.659Z,-2.20
2022-12-15T08:16:36.705Z,-2.20
2022-12-15T08:19:06.331Z,-2.10
2022-12-15T08:21:35.847Z,-2.10
2022-12-15T08:24:04.220Z,-2.10
2022-12-15T08:26:32.175Z,-1.20
2022-12-15T08:29:40.659Z,-2.00
2022-12-15T08:31:52.727Z,-2.00
2022-12-15T08:34:21.031Z,-2.00
2022-12-15T08:36:50.460Z,-2.00
2022-12-15T08:39:18.411Z,-1.90
2022-12-15T08:41:46.376Z,-1.90
2022-12-15T08:44:14.387Z,-1.90
2022-12-15T08:46:42.334Z,-1.90
2022-12-15T08:49:15.255Z,-1.90
2022-12-15T08:51:45.920Z,-1.90
2022-12-15T08:54:20.349Z,-1.90
2022-12-15T08:56:48.478Z,-1.90
2022-12-15T08:59:16.913Z,-1.80
2022-12-15T09:01:44.871Z,-1.80
2022-12-15T09:04:13.154Z,-1.80
2022-12-15T09:06:41.153Z,-1.40
2022-12-15T09:09:12.471Z,-1.70
2022-12-15T09:11:41.891Z,-1.70
2022-12-15T09:14:09.803Z,-1.60
2022-12-15T09:16:37.753Z,-1.60
2022-12-15T09:19:05.781Z,-1.60
2022-12-15T09:21:33.687Z,-1.60
2022-12-15T09:24:02.748Z,-1.50
2022-12-15T09:26:32.500Z,-1.50
2022-12-15T09:29:02.878Z,-1.50
2022-12-15T09:31:32.843Z,-1.40
2022-12-15T09:34:02.174Z,-1.30
2022-12-15T09:36:32.518Z,-1.30
2022-12-15T09:39:01.870Z,-0.40
2022-12-15T09:41:32.126Z,-1.20
2022-12-15T09:44:04.383Z,-1.00
2022-12-15T09:46:36.850Z,-0.90
2022-12-15T09:49:10.979Z,-0.80
2022-12-15T09:51:44.622Z,-0.70
2022-12-15T09:54:12.893Z,-0.50
2022-12-15T09:56:49.874Z,-0.50
2022-12-15T09:59:30.683Z,-0.50
2022-12-15T10:02:22.759Z,-0.40
2022-12-15T10:04:59.044Z,-0.30
2022-12-15T10:07:32.320Z,-0.30
2022-12-15T10:10:00.298Z,-0.20
2022-12-15T10:12:32.647Z,-0.20
2022-12-15T10:15:07.400Z,-0.20
2022-12-15T10:17:46.522Z,-0.10
2022-12-15T10:20:21.508Z,-0.20
2022-12-15T10:22:51.241Z,-0.10
2022-12-15T10:25:29.285Z,-0.10
2022-12-15T10:28:18.707Z,-0.20
2022-12-15T10:30:52.793Z,-0.10
2022-12-15T10:33:24.943Z,0.00
2022-12-15T10:35:54.933Z,0.00
2022-12-15T10:38:32.192Z,0.00
2022-12-15T10:41:02.050Z,0.10
2022-12-15T10:43:34.581Z,0.10
2022-12-15T10:46:08.337Z,0.20
2022-12-15T10:48:36.602Z,0.30
2022-12-15T10:51:21.065Z,0.40
2022-12-15T10:53:51.004Z,0.50
2022-12-15T10:56:32.432Z,0.50
2022-12-15T10:59:03.557Z,0.60
2022-12-15T11:01:35.682Z,0.70
2022-12-15T11:04:03.781Z,0.70
2022-12-15T11:06:34.030Z,0.80
2022-12-15T11:09:10.947Z,0.90
2022-12-15T11:12:06.287Z,0.90
2022-12-15T11:14:44.724Z,1.20
2022-12-15T11:17:18.551Z,1.20
2022-12-15T11:20:01.636Z,1.20
2022-12-15T11:22:40.969Z,1.20
2022-12-15T11:25:25.936Z,1.30
2022-12-15T11:27:57.963Z,1.30
2022-12-15T11:30:30.466Z,1.30
2022-12-15T11:33:01.595Z,1.30
2022-12-15T11:35:36.685Z,1.30
2022-12-15T11:38:14.164Z,1.40
2022-12-15T11:40:43.060Z,1.40
2022-12-15T11:43:35.282Z,1.40
2022-12-15T11:46:19.775Z,1.40
2022-12-15T11:49:09.076Z,1.50
2022-12-15T11:51:43.576Z,1.40
2022-12-15T11:54:19.535Z,1.50
2022-12-15T11:56:51.474Z,1.50
2022-12-15T11:59:48.304Z,1.70
2022-12-15T12:02:45.767Z,1.90
2022-12-15T12:05:41.635Z,2.00
2022-12-15T12:08:36.576Z,2.20
2022-12-15T12:11:11.037Z,2.20
2022-12-15T12:13:51.181Z,2.40
2022-12-15T12:16:32.402Z,2.40
2022-12-15T12:19:05.656Z,2.40
2022-12-15T12:21:37.927Z,2.50
2022-12-15T12:24:12.854Z,2.70
2022-12-15T12:26:46.160Z,2.70
2022-12-15T12:29:21.269Z,3.10
2022-12-15T12:32:04.164Z,2.80
2022-12-15T12:34:43.589Z,2.80
2022-12-15T12:37:20.925Z,2.80
2022-12-15T12:39:50.841Z,2.80
2022-12-15T12:42:26.537Z,2.80
2022-12-15T12:44:54.514Z,2.90
2022-12-15T12:47:27.451Z,2.90
2022-12-15T12:49:58.509Z,2.90
2022-12-15T12:52:31.225Z,2.90
2022-12-15T12:55:01.416Z,3.00
2022-12-15T12:57:38.338Z,2.90
2022-12-15T13:00:24.886Z,2.90
2022-12-15T13:03:10.210Z,3.00
2022-12-15T13:05:39.786Z,2.90
2022-12-15T13:11:58.119Z,3.10
2022-12-15T13:14:36.938Z,3.10
2022-12-15T13:17:28.186Z,3.80
2022-12-15T13:20:25.712Z,3.20
2022-12-15T13:22:55.196Z,3.30
2022-12-15T13:25:40.850Z,3.40
2022-12-15T13:28:24.276Z,3.50
2022-12-15T13:31:23.020Z,3.60
2022-12-15T13:33:56.696Z,3.70
2022-12-15T13:36:47.016Z,3.70
2022-12-15T13:39:58.038Z,4.10
2022-12-15T13:42:45.595Z,3.80
2022-12-15T13:45:43.096Z,3.80
2022-12-15T13:48:23.386Z,4.60
2022-12-15T13:51:02.510Z,3.80
2022-12-15T13:53:38.777Z,3.80
2022-12-15T13:56:23.605Z,3.70
2022-12-15T13:59:03.991Z,3.70
2022-12-15T14:01:33.836Z,3.60
2022-12-15T14:04:07.997Z,3.60
2022-12-15T14:06:38.925Z,3.60
2022-12-15T14:09:11.068Z,4.50
2022-12-15T14:11:57.326Z,3.50
2022-12-15T14:14:30.084Z,4.20
2022-12-15T14:17:01.075Z,3.50
2022-12-15T14:19:38.822Z,3.80
2022-12-15T14:22:28.044Z,3.40
2022-12-15T14:25:13.238Z,3.30
2022-12-15T14:27:41.152Z,3.30
2022-12-15T14:30:20.220Z,3.30
2022-12-15T14:32:52.677Z,3.30
2022-12-15T14:35:26.776Z,3.20
2022-12-15T14:37:58.736Z,3.70
2022-12-15T14:40:29.511Z,3.20
2022-12-15T14:42:57.953Z,3.10
2022-12-15T14:45:32.049Z,3.10
2022-12-15T14:50:59.407Z,4.20
2022-12-15T14:53:31.732Z,3.00
2022-12-15T14:56:12.658Z,3.00
2022-12-15T14:58:42.420Z,2.90
2022-12-15T15:01:26.266Z,3.40
2022-12-15T15:03:07.287Z,3.00
2022-12-15T15:04:02.004Z,3.20
2022-12-15T15:06:41.119Z,2.90
2022-12-15T15:09:25.366Z,2.80
2022-12-15T15:11:56.570Z,3.00
2022-12-15T15:14:27.801Z,2.90
2022-12-15T15:17:05.563Z,2.90
2022-12-15T15:19:39.091Z,2.80
2022-12-15T15:22:14.155Z,2.80
2022-12-15T15:24:42.155Z,2.70
2022-12-15T15:27:25.178Z,3.50
2022-12-15T15:29:53.433Z,2.70
2022-12-15T15:32:25.097Z,2.60
2022-12-15T15:34:53.027Z,2.50
2022-12-15T15:37:23.765Z,2.50
2022-12-15T15:39:53.043Z,2.40
2022-12-15T15:42:21.289Z,2.40
2022-12-15T15:44:49.172Z,2.30
2022-12-15T15:47:26.359Z,2.30
2022-12-15T15:49:55.916Z,2.20
2022-12-15T15:52:24.385Z,2.20
2022-12-15T15:54:54.696Z,2.10
2022-12-15T15:57:22.900Z,2.00
2022-12-15T15:59:51.060Z,1.90
2022-12-15T16:02:19.147Z,2.70
2022-12-15T16:04:48.576Z,2.50
2022-12-15T16:07:23.539Z,1.80
2022-12-15T16:09:51.739Z,1.70
2022-12-15T16:12:27.750Z,1.70
2022-12-15T16:14:55.921Z,1.60
2022-12-15T16:17:24.275Z,1.60
2022-12-15T16:19:53.547Z,1.60
2022-12-15T16:22:23.142Z,2.70
2022-12-15T16:24:51.124Z,1.50
2022-12-15T16:27:19.065Z,1.80
2022-12-15T16:29:47.010Z,1.40
2022-12-15T16:32:15.448Z,1.30
2022-12-15T16:34:43.580Z,1.30
2022-12-15T16:37:25.418Z,1.30
2022-12-15T16:39:53.605Z,1.20
2022-12-15T16:42:21.593Z,1.20
2022-12-15T16:44:49.570Z,1.10
2022-12-15T16:47:17.481Z,1.00
2022-12-15T16:49:45.529Z,1.00
2022-12-15T16:52:20.698Z,1.00
2022-12-15T16:54:50.180Z,0.90
2022-12-15T16:57:18.453Z,1.90
2022-12-15T16:59:46.408Z,0.90
2022-12-15T17:02:28.140Z,0.80
2022-12-15T17:04:56.377Z,0.80
2022-12-15T17:07:27.576Z,1.00
2022-12-15T17:09:55.603Z,0.70
2022-12-15T17:12:23.608Z,0.70
2022-12-15T17:14:51.556Z,0.70
2022-12-15T17:17:21.263Z,0.70
2022-12-15T17:20:19.835Z,0.60
2022-12-15T17:22:38.899Z,0.70
2022-12-15T17:25:07.512Z,0.70
2022-12-15T17:27:35.484Z,0.70
2022-12-15T17:30:03.630Z,0.70
2022-12-15T17:32:31.683Z,0.70
2022-12-15T17:34:59.635Z,1.20
2022-12-15T17:37:32.004Z,0.70
2022-12-15T17:40:05.099Z,0.80
2022-12-15T17:42:32.998Z,1.60
2022-12-15T17:45:00.955Z,0.90
2022-12-15T17:47:30.438Z,1.20
2022-12-15T17:49:58.405Z,1.30
2022-12-15T17:52:29.315Z,1.50
2022-12-15T17:54:57.895Z,1.40
2022-12-15T17:57:27.368Z,1.30
2022-12-15T17:59:55.848Z,1.30
2022-12-15T18:02:23.878Z,1.60
2022-12-15T18:04:51.970Z,1.30
2022-12-15T18:07:22.382Z,1.20
2022-12-15T18:09:51.890Z,1.30
2022-12-15T18:12:22.610Z,1.20
2022-12-15T18:14:52.360Z,1.20
2022-12-15T18:17:20.583Z,1.20
2022-12-15T18:19:48.862Z,1.20
2022-12-15T18:22:21.059Z,1.10
2022-12-15T18:24:49.376Z,1.10
2022-12-15T18:27:23.715Z,1.10
2022-12-15T18:29:53.931Z,1.00
2022-12-15T18:32:23.711Z,1.00
2022-12-15T18:34:52.342Z,1.00
2022-12-15T18:37:23.048Z,0.90
2022-12-15T18:39:51.512Z,1.00
2022-12-15T18:42:21.592Z,0.90
2022-12-15T18:44:51.596Z,0.90
2022-12-15T18:47:23.890Z,0.80
2022-12-15T18:49:51.788Z,0.80
2022-12-15T18:52:22.569Z,0.70
2022-12-15T18:54:52.261Z,0.70
2022-12-15T18:57:28.037Z,0.60
2022-12-15T18:59:58.749Z,0.60
2022-12-15T19:02:28.316Z,0.60
2022-12-15T19:04:56.887Z,1.60
2022-12-15T19:07:24.839Z,0.50
2022-12-15T19:09:52.869Z,0.50
2022-12-15T19:12:20.969Z,0.50
2022-12-15T19:14:51.398Z,0.40
2022-12-15T19:17:39.347Z,0.40
2022-12-15T19:20:39.468Z,0.40
2022-12-15T19:23:08.499Z,0.40
2022-12-15T19:25:36.762Z,0.70
2022-12-15T19:28:05.099Z,0.40
2022-12-15T19:30:40.286Z,0.30
2022-12-15T19:33:09.916Z,0.40
2022-12-15T19:35:39.874Z,0.30
2022-12-15T19:38:08.634Z,0.40
2022-12-15T19:40:38.171Z,0.40
2022-12-15T19:43:07.244Z,0.40
2022-12-15T19:45:35.234Z,0.50
2022-12-15T19:48:03.414Z,0.50
2022-12-15T19:50:36.602Z,0.50
2022-12-15T19:53:11.764Z,0.50
2022-12-15T19:55:40.277Z,0.50
2022-12-15T19:58:27.949Z,0.50
2022-12-15T20:00:58.061Z,0.50
2022-12-15T20:03:26.846Z,0.50
2022-12-15T20:05:56.376Z,0.50
2022-12-15T20:08:27.747Z,0.60
2022-12-15T20:10:56.751Z,0.60
2022-12-15T20:13:26.372Z,0.60
2022-12-15T20:15:54.841Z,0.50
2022-12-15T20:18:23.008Z,0.60
2022-12-15T20:20:51.438Z,0.60
2022-12-15T20:23:21.835Z,0.60
2022-12-15T20:25:51.167Z,0.60
2022-12-15T20:28:21.766Z,0.60
2022-12-15T20:30:50.426Z,0.60
2022-12-15T20:33:19.141Z,0.60
2022-12-15T20:35:49.056Z,1.60
2022-12-15T20:38:25.902Z,0.70
2022-12-15T20:40:56.313Z,1.80
2022-12-15T20:43:25.851Z,0.60
2022-12-15T20:46:01.798Z,0.70
2022-12-15T20:48:31.023Z,0.70
2022-12-15T20:51:01.949Z,0.70
2022-12-15T20:53:32.935Z,0.70
2022-12-15T20:56:02.603Z,0.80
2022-12-15T20:58:33.331Z,0.80
2022-12-15T21:01:01.832Z,0.90
2022-12-15T21:03:32.000Z,0.90
2022-12-15T21:06:00.851Z,0.90
2022-12-15T21:08:31.630Z,0.90
2022-12-15T21:11:08.324Z,0.90
2022-12-15T21:13:36.495Z,0.90
2022-12-15T21:16:04.568Z,0.90
2022-12-15T21:21:25.229Z,1.00
2022-12-15T21:23:53.178Z,1.00
2022-12-15T21:26:25.909Z,1.10
2022-12-15T21:28:57.077Z,1.20
2022-12-15T21:31:25.203Z,1.10
2022-12-15T21:33:53.244Z,2.40
2022-12-15T21:36:23.222Z,1.20
2022-12-15T21:38:53.014Z,1.10
2022-12-15T21:41:24.761Z,1.10
2022-12-15T21:43:52.706Z,1.10
2022-12-15T21:46:28.397Z,1.10
2022-12-15T21:49:17.313Z,1.20
2022-12-15T21:51:47.682Z,1.10
2022-12-15T21:54:19.146Z,1.10
2022-12-15T21:56:49.505Z,1.10
2022-12-15T21:59:20.718Z,1.10
2022-12-15T22:01:49.768Z,1.00
2022-12-15T22:04:22.041Z,1.10
2022-12-15T22:06:51.123Z,2.10
2022-12-15T22:09:21.251Z,1.20
2022-12-15T22:11:53.872Z,1.30
2022-12-15T22:14:26.848Z,1.30
2022-12-15T22:16:55.519Z,1.40
2022-12-15T22:19:23.875Z,1.40
2022-12-15T22:21:52.296Z,1.50
2022-12-15T22:24:20.878Z,1.50
2022-12-15T22:26:50.319Z,1.50
2022-12-15T22:29:21.613Z,1.60
2022-12-15T22:31:50.595Z,1.60
2022-12-15T22:34:21.633Z,1.80
2022-12-15T22:36:50.404Z,1.50
2022-12-15T22:39:19.007Z,1.60
2022-12-15T22:41:51.448Z,1.90
2022-12-15T22:44:22.994Z,2.20
2022-12-15T22:46:52.377Z,1.60
2022-12-15T22:49:24.821Z,1.50
2022-12-15T22:51:52.767Z,1.50
2022-12-15T22:54:25.418Z,1.50
2022-12-15T22:56:58.579Z,1.60
2022-12-15T22:59:30.101Z,1.50
2022-12-15T23:01:58.402Z,1.40
2022-12-15T23:04:26.461Z,1.50
2022-12-15T23:06:54.876Z,2.00
2022-12-15T23:09:22.973Z,1.50
2022-12-15T23:11:49.950Z,1.50
2022-12-15T23:14:40.234Z,2.20
2022-12-15T23:17:07.274Z,1.40
2022-12-15T23:19:36.311Z,1.40
2022-12-15T23:22:04.419Z,1.60
2022-12-15T23:24:32.647Z,1.50
2022-12-15T23:27:00.890Z,1.50
2022-12-15T23:29:30.212Z,1.50
2022-12-15T23:31:58.389Z,1.50
2022-12-15T23:34:26.376Z,2.00
2022-12-15T23:36:54.336Z,1.50
2022-12-15T23:39:22.411Z,1.50
2022-12-15T23:41:50.402Z,1.50
2022-12-15T23:44:18.501Z,1.50
2022-12-15T23:46:47.955Z,1.50
2022-12-15T23:49:15.971Z,1.50
2022-12-15T23:51:44.158Z,1.40
2022-12-15T23:54:12.130Z,1.40
2022-12-15T23:56:40.768Z,1.50
2022-12-15T23:59:08.709Z,1.50
